createdAt,value
2023-03-31T00:01:14.901Z,28.30
2023-03-31T00:03:44.944Z,21.90
2023-03-31T00:06:18.907Z,49.50
2023-03-31T00:08:52.279Z,46.80
2023-03-31T00:11:22.434Z,22.70
2023-03-31T00:13:50.927Z,23.30
2023-03-31T00:16:19.864Z,17.70
2023-03-31T00:18:51.145Z,20.30
2023-03-31T00:21:25.409Z,19.20
2023-03-31T00:23:59.922Z,16.70
2023-03-31T00:26:29.614Z,20.10
2023-03-31T00:28:59.692Z,16.30
2023-03-31T00:31:28.808Z,18.50
2023-03-31T00:33:57.415Z,16.50
2023-03-31T00:36:29.111Z,15.20
2023-03-31T00:39:09.009Z,15.90
2023-03-31T00:41:39.498Z,15.00
2023-03-31T00:44:23.236Z,14.80
2023-03-31T00:47:12.341Z,13.30
2023-03-31T00:49:50.799Z,15.10
2023-03-31T00:52:27.141Z,16.90
2023-03-31T00:54:59.952Z,18.60
2023-03-31T00:57:32.579Z,114.40
2023-03-31T01:00:16.285Z,19.20
2023-03-31T01:02:56.258Z,14.30
2023-03-31T01:05:37.360Z,11.90
2023-03-31T01:08:06.451Z,24.50
2023-03-31T01:10:41.955Z,44.00
2023-03-31T01:13:13.745Z,9.20
2023-03-31T01:15:42.951Z,8.60
2023-03-31T01:18:13.298Z,11.70
2023-03-31T01:20:57.632Z,48.90
2023-03-31T01:23:50.585Z,97.50
2023-03-31T01:26:24.711Z,246.40
2023-03-31T01:29:18.063Z,209.80
2023-03-31T01:32:14.603Z,198.10
2023-03-31T01:34:59.160Z,74.80
2023-03-31T01:38:13.012Z,34.30
2023-03-31T01:41:02.480Z,24.30
2023-03-31T01:43:59.328Z,49.60
2023-03-31T01:46:50.671Z,110.80
2023-03-31T01:49:42.267Z,75.60
2023-03-31T01:52:44.154Z,67.10
2023-03-31T01:55:21.943Z,26.60
2023-03-31T02:00:42.240Z,14.10
2023-03-31T02:03:26.982Z,9.00
2023-03-31T02:06:03.902Z,24.70
2023-03-31T02:08:38.421Z,10.70
2023-03-31T02:11:07.098Z,6.70
2023-03-31T02:13:39.365Z,6.80
2023-03-31T02:16:14.424Z,6.90
2023-03-31T02:18:44.523Z,35.00
2023-03-31T02:21:14.896Z,108.70
2023-03-31T02:23:46.088Z,17.50
2023-03-31T02:26:38.132Z,10.40
2023-03-31T02:29:07.028Z,10.50
2023-03-31T02:31:41.299Z,7.20
2023-03-31T02:34:10.021Z,7.50
2023-03-31T02:36:38.911Z,31.40
2023-03-31T02:39:27.260Z,18.50
2023-03-31T02:41:55.844Z,20.30
2023-03-31T02:44:25.146Z,19.30
2023-03-31T02:46:54.658Z,20.80
2023-03-31T02:49:22.909Z,17.10
2023-03-31T02:52:13.338Z,25.60
2023-03-31T02:55:16.419Z,91.30
2023-03-31T02:57:59.750Z,100.80
2023-03-31T03:00:46.561Z,121.40
2023-03-31T03:03:21.029Z,114.60
2023-03-31T03:06:08.686Z,59.80
2023-03-31T03:09:13.857Z,54.70
2023-03-31T03:12:00.462Z,42.60
2023-03-31T03:14:40.086Z,56.80
2023-03-31T03:17:14.691Z,39.30
2023-03-31T03:19:43.417Z,21.30
2023-03-31T03:22:11.696Z,336.20
2023-03-31T03:24:40.094Z,134.00
2023-03-31T03:27:08.455Z,113.80
2023-03-31T03:29:36.629Z,189.70
2023-03-31T03:32:04.908Z,173.50
2023-03-31T03:34:33.320Z,172.60
2023-03-31T03:37:01.767Z,169.20
2023-03-31T03:39:30.047Z,193.40
2023-03-31T03:41:58.738Z,100.70
2023-03-31T03:44:27.382Z,40.70
2023-03-31T03:46:55.700Z,24.60
2023-03-31T03:49:24.070Z,153.50
2023-03-31T03:51:52.962Z,127.80
2023-03-31T03:54:21.457Z,168.10
2023-03-31T03:56:49.790Z,133.30
2023-03-31T03:59:18.445Z,79.70
2023-03-31T04:01:46.930Z,49.00
2023-03-31T04:04:15.667Z,40.80
2023-03-31T04:06:43.943Z,49.00
2023-03-31T04:09:12.045Z,55.20
2023-03-31T04:11:40.599Z,49.60
2023-03-31T04:14:08.980Z,41.10
2023-03-31T04:16:38.666Z,68.30
2023-03-31T04:19:07.178Z,30.40
2023-03-31T04:21:35.648Z,28.70
2023-03-31T04:24:07.101Z,53.40
2023-03-31T04:26:45.010Z,33.20
2023-03-31T04:29:16.736Z,87.00
2023-03-31T04:31:45.259Z,28.90
2023-03-31T04:34:15.584Z,25.20
2023-03-31T04:36:47.964Z,57.10
2023-03-31T04:39:24.616Z,38.70
2023-03-31T04:41:55.762Z,12.10
2023-03-31T04:44:24.242Z,11.10
2023-03-31T04:46:52.629Z,10.60
2023-03-31T04:49:21.110Z,13.70
2023-03-31T04:51:49.793Z,10.20
2023-03-31T04:54:21.134Z,12.90
2023-03-31T04:56:49.444Z,26.20
2023-03-31T04:59:17.590Z,22.10
2023-03-31T05:01:46.116Z,15.50
2023-03-31T05:04:14.756Z,11.20
2023-03-31T05:06:43.064Z,9.50
2023-03-31T05:09:11.415Z,9.90
2023-03-31T05:11:39.801Z,8.30
2023-03-31T05:14:07.976Z,8.50
2023-03-31T05:16:36.577Z,10.00
2023-03-31T05:19:04.945Z,10.10
2023-03-31T05:21:33.319Z,8.70
2023-03-31T05:24:01.504Z,10.80
2023-03-31T05:26:29.659Z,8.40
2023-03-31T05:28:57.940Z,6.80
2023-03-31T05:31:27.676Z,8.10
2023-03-31T05:33:55.933Z,8.10
2023-03-31T05:36:24.346Z,6.70
2023-03-31T05:38:53.096Z,12.90
2023-03-31T05:41:21.678Z,16.60
2023-03-31T05:43:50.060Z,23.00
2023-03-31T05:46:18.760Z,16.80
2023-03-31T05:48:47.080Z,9.30
2023-03-31T05:51:15.299Z,16.90
2023-03-31T05:53:44.209Z,15.10
2023-03-31T05:56:12.770Z,11.40
2023-03-31T05:58:41.458Z,19.90
2023-03-31T06:01:12.315Z,19.70
2023-03-31T06:03:42.538Z,13.60
2023-03-31T06:06:13.372Z,11.00
2023-03-31T06:08:45.788Z,9.00
2023-03-31T06:11:17.300Z,11.90
2023-03-31T06:13:46.386Z,12.70
2023-03-31T06:16:17.231Z,9.90
2023-03-31T06:18:46.206Z,13.90
2023-03-31T06:21:17.157Z,9.70
2023-03-31T06:23:46.349Z,11.00
2023-03-31T06:26:17.254Z,11.10
2023-03-31T06:28:47.041Z,13.20
2023-03-31T06:31:18.578Z,10.10
2023-03-31T06:33:48.150Z,9.30
2023-03-31T06:36:18.320Z,10.90
2023-03-31T06:38:46.778Z,12.30
2023-03-31T06:41:17.086Z,25.60
2023-03-31T06:43:45.378Z,11.00
2023-03-31T06:46:14.373Z,12.20
2023-03-31T06:48:42.953Z,14.00
2023-03-31T06:51:12.129Z,18.50
2023-03-31T06:53:40.983Z,20.80
2023-03-31T06:56:09.660Z,10.80
2023-03-31T06:58:38.187Z,10.90
2023-03-31T07:01:07.393Z,9.30
2023-03-31T07:03:36.522Z,15.90
2023-03-31T07:06:05.270Z,76.90
2023-03-31T07:08:33.445Z,33.80
2023-03-31T07:11:02.378Z,19.60
2023-03-31T07:13:31.146Z,52.60
2023-03-31T07:15:59.433Z,27.00
2023-03-31T07:18:34.899Z,14.30
2023-03-31T07:21:07.284Z,14.80
2023-03-31T07:23:38.508Z,13.80
2023-03-31T07:26:06.955Z,13.80
2023-03-31T07:28:35.835Z,29.40
2023-03-31T07:31:11.346Z,84.20
2023-03-31T07:33:40.076Z,14.90
2023-03-31T07:36:12.787Z,15.00
2023-03-31T07:38:44.466Z,29.70
2023-03-31T07:41:15.478Z,26.80
2023-03-31T07:43:44.888Z,29.70
2023-03-31T07:46:24.253Z,65.50
2023-03-31T07:48:54.619Z,17.70
2023-03-31T07:51:25.989Z,75.20
2023-03-31T07:53:54.272Z,12.70
2023-03-31T07:56:25.025Z,86.00
2023-03-31T07:58:56.815Z,15.90
2023-03-31T08:01:26.908Z,29.60
2023-03-31T08:03:56.233Z,43.00
2023-03-31T08:06:26.680Z,23.50
2023-03-31T08:08:55.268Z,17.50
2023-03-31T08:11:24.676Z,33.30
2023-03-31T08:13:53.462Z,24.70
2023-03-31T08:16:21.688Z,21.10
2023-03-31T08:18:50.817Z,12.60
2023-03-31T08:21:19.328Z,16.60
2023-03-31T08:23:48.515Z,12.30
2023-03-31T08:26:22.025Z,12.00
2023-03-31T08:28:50.863Z,9.90
2023-03-31T08:31:21.570Z,11.60
2023-03-31T08:33:50.637Z,14.20
2023-03-31T08:36:18.923Z,16.70
2023-03-31T08:38:48.189Z,12.90
2023-03-31T08:41:16.380Z,27.10
2023-03-31T08:43:47.775Z,49.40
2023-03-31T08:46:18.944Z,12.70
2023-03-31T08:48:55.191Z,12.00
2023-03-31T08:51:39.704Z,12.50
2023-03-31T08:54:34.186Z,13.80
2023-03-31T08:57:06.433Z,9.90
2023-03-31T08:59:37.762Z,27.40
2023-03-31T09:02:48.989Z,16.60
2023-03-31T09:05:58.972Z,11.10
2023-03-31T09:08:39.455Z,16.50
2023-03-31T09:11:14.896Z,10.20
2023-03-31T09:14:05.249Z,10.40
2023-03-31T09:16:38.888Z,10.60
2023-03-31T09:19:18.911Z,11.00
2023-03-31T09:21:51.997Z,10.50
2023-03-31T09:24:25.963Z,14.20
2023-03-31T09:27:00.855Z,9.50
2023-03-31T09:29:47.550Z,13.00
2023-03-31T09:32:22.872Z,8.70
2023-03-31T09:34:57.431Z,8.00
2023-03-31T09:37:30.505Z,8.60
2023-03-31T09:40:02.277Z,7.70
2023-03-31T09:42:30.948Z,11.30
2023-03-31T09:44:59.290Z,9.70
2023-03-31T09:47:43.846Z,9.00
2023-03-31T09:50:12.880Z,13.50
2023-03-31T09:52:43.354Z,13.80
2023-03-31T09:55:39.213Z,8.20
2023-03-31T09:58:13.892Z,9.70
2023-03-31T10:00:44.383Z,9.00
2023-03-31T10:03:16.280Z,8.40
2023-03-31T10:05:53.206Z,10.10
2023-03-31T10:08:29.397Z,7.90
2023-03-31T10:11:09.092Z,8.30
2023-03-31T10:13:58.994Z,7.60
2023-03-31T10:16:30.043Z,7.40
2023-03-31T10:19:21.638Z,8.70
2023-03-31T10:22:06.910Z,9.40
2023-03-31T10:24:43.897Z,11.40
2023-03-31T10:27:21.429Z,9.30
2023-03-31T10:29:57.141Z,10.10
2023-03-31T10:32:45.874Z,9.40
2023-03-31T10:35:27.424Z,10.70
2023-03-31T10:38:07.449Z,9.70
2023-03-31T10:40:37.017Z,9.90
2023-03-31T10:43:21.455Z,11.30
2023-03-31T10:45:52.463Z,11.00
2023-03-31T10:48:29.053Z,11.20
2023-03-31T10:51:19.150Z,13.00
2023-03-31T10:53:52.738Z,10.50
2023-03-31T10:56:32.289Z,11.60
2023-03-31T10:59:33.143Z,9.60
2023-03-31T11:02:20.051Z,10.10
2023-03-31T11:05:01.032Z,10.70
2023-03-31T11:07:48.898Z,10.60
2023-03-31T11:10:30.022Z,11.70
2023-03-31T11:13:20.114Z,10.70
2023-03-31T11:15:59.316Z,11.30
2023-03-31T11:18:43.093Z,12.60
2023-03-31T11:21:28.673Z,13.40
2023-03-31T11:24:24.860Z,13.60
2023-03-31T11:27:09.834Z,10.50
2023-03-31T11:29:44.809Z,19.00
2023-03-31T11:32:43.661Z,13.80
2023-03-31T11:35:47.819Z,12.60
2023-03-31T11:38:30.971Z,30.60
2023-03-31T11:41:16.774Z,27.40
2023-03-31T11:43:49.923Z,15.90
2023-03-31T11:46:23.931Z,11.90
2023-03-31T11:49:00.294Z,13.40
2023-03-31T11:51:42.727Z,9.30
2023-03-31T11:54:20.482Z,11.80
2023-03-31T11:56:49.425Z,11.20
2023-03-31T11:59:21.681Z,20.50
2023-03-31T12:02:16.050Z,8.90
2023-03-31T12:04:49.819Z,8.50
2023-03-31T12:07:32.261Z,7.90
2023-03-31T12:10:19.577Z,7.60
2023-03-31T12:13:15.102Z,7.30
2023-03-31T12:15:48.479Z,7.10
2023-03-31T12:18:22.849Z,5.80
2023-03-31T12:20:55.814Z,6.70
2023-03-31T12:23:28.789Z,7.60
2023-03-31T12:26:16.933Z,4.70
2023-03-31T12:28:48.113Z,4.90
2023-03-31T12:31:22.332Z,4.50
2023-03-31T12:34:14.329Z,6.10
2023-03-31T12:37:15.083Z,4.10
2023-03-31T12:39:43.143Z,4.00
2023-03-31T12:42:40.959Z,3.90
2023-03-31T12:45:32.412Z,3.10
2023-03-31T12:48:19.342Z,4.30
2023-03-31T12:51:09.973Z,3.90
2023-03-31T12:53:44.371Z,4.30
2023-03-31T12:56:12.749Z,3.20
2023-03-31T12:58:43.554Z,4.80
2023-03-31T13:01:23.626Z,4.00
2023-03-31T13:03:54.277Z,3.70
2023-03-31T13:06:25.719Z,4.60
2023-03-31T13:08:58.726Z,4.00
2023-03-31T13:11:36.721Z,4.20
2023-03-31T13:14:17.481Z,3.40
2023-03-31T13:16:47.246Z,4.40
2023-03-31T13:19:31.347Z,3.60
2023-03-31T13:22:01.974Z,7.10
2023-03-31T13:24:32.167Z,4.20
2023-03-31T13:27:31.402Z,3.40
2023-03-31T13:29:59.488Z,3.70
2023-03-31T13:32:28.317Z,4.80
2023-03-31T13:35:05.835Z,3.40
2023-03-31T13:37:46.626Z,3.60
2023-03-31T13:40:27.300Z,7.90
2023-03-31T13:43:27.363Z,4.50
2023-03-31T13:46:08.859Z,4.30
2023-03-31T13:48:55.910Z,3.20
2023-03-31T13:51:43.128Z,6.50
2023-03-31T13:54:29.634Z,3.90
2023-03-31T13:57:03.787Z,3.70
2023-03-31T13:59:50.765Z,7.10
2023-03-31T14:02:45.740Z,3.30
2023-03-31T14:05:23.260Z,2.50
2023-03-31T14:08:15.088Z,4.20
2023-03-31T14:10:44.399Z,4.30
2023-03-31T14:13:18.767Z,3.80
2023-03-31T14:15:58.247Z,4.10
2023-03-31T14:18:51.550Z,3.60
2023-03-31T14:21:34.124Z,4.70
2023-03-31T14:24:35.791Z,7.70
2023-03-31T14:27:41.642Z,3.80
2023-03-31T14:30:42.616Z,8.70
2023-03-31T14:33:19.609Z,46.60
2023-03-31T14:36:08.331Z,3.80
2023-03-31T14:38:37.274Z,3.00
2023-03-31T14:41:05.922Z,3.50
2023-03-31T14:43:47.743Z,3.20
2023-03-31T14:46:20.602Z,3.90
2023-03-31T14:48:51.249Z,2.00
2023-03-31T14:51:31.119Z,2.20
2023-03-31T14:54:00.903Z,2.20
2023-03-31T14:56:38.052Z,2.20
2023-03-31T14:59:08.168Z,2.80
2023-03-31T15:01:38.572Z,2.60
2023-03-31T15:04:20.390Z,2.50
2023-03-31T15:06:53.685Z,2.10
2023-03-31T15:09:27.408Z,2.60
2023-03-31T15:12:01.813Z,3.10
2023-03-31T15:14:36.932Z,3.00
2023-03-31T15:17:05.345Z,2.40
2023-03-31T15:19:35.795Z,2.20
2023-03-31T15:22:19.155Z,2.60
2023-03-31T15:24:47.476Z,4.00
2023-03-31T15:27:23.334Z,9.00
2023-03-31T15:29:57.533Z,8.10
2023-03-31T15:32:31.593Z,82.20
2023-03-31T15:37:54.797Z,348.70
2023-03-31T15:40:52.096Z,199.90
2023-03-31T15:44:13.051Z,446.10
2023-03-31T15:46:42.380Z,399.10
2023-03-31T15:49:26.402Z,326.30
2023-03-31T15:51:57.691Z,170.60
2023-03-31T15:54:34.891Z,286.30
2023-03-31T15:57:05.868Z,416.10
2023-03-31T16:02:25.645Z,208.90
2023-03-31T16:04:59.762Z,135.80
2023-03-31T16:07:36.662Z,128.70
2023-03-31T16:10:18.548Z,111.30
2023-03-31T16:12:56.302Z,106.10
2023-03-31T16:15:41.873Z,52.10
2023-03-31T16:18:18.081Z,115.60
2023-03-31T16:20:54.736Z,59.30
2023-03-31T16:23:27.993Z,102.80
2023-03-31T16:25:56.520Z,70.50
2023-03-31T16:28:31.650Z,81.50
2023-03-31T16:31:02.196Z,84.20
2023-03-31T16:33:31.991Z,243.70
2023-03-31T16:36:02.952Z,118.80
2023-03-31T16:38:31.407Z,67.10
2023-03-31T16:41:00.682Z,42.70
2023-03-31T16:43:31.405Z,68.90
2023-03-31T16:46:03.493Z,51.30
2023-03-31T16:48:35.149Z,38.10
2023-03-31T16:51:04.129Z,28.20
2023-03-31T16:53:34.637Z,22.30
2023-03-31T16:56:05.191Z,139.90
2023-03-31T16:58:34.408Z,39.20
2023-03-31T17:01:03.669Z,43.40
2023-03-31T17:03:32.585Z,55.80
2023-03-31T17:06:07.068Z,163.60
2023-03-31T17:08:35.294Z,146.50
2023-03-31T17:11:07.292Z,109.70
2023-03-31T17:13:35.536Z,101.10
2023-03-31T17:18:54.733Z,61.70
2023-03-31T17:21:23.923Z,34.40
2023-03-31T17:23:52.447Z,261.50
2023-03-31T17:26:20.993Z,232.50
2023-03-31T17:28:49.366Z,155.60
2023-03-31T17:31:21.220Z,162.10
2023-03-31T17:33:49.612Z,157.60
2023-03-31T17:36:18.197Z,165.70
2023-03-31T17:38:46.666Z,152.80
2023-03-31T17:41:17.813Z,67.40
2023-03-31T17:43:47.420Z,159.90
2023-03-31T17:46:17.522Z,29.80
2023-03-31T17:48:45.915Z,15.80
2023-03-31T17:51:16.814Z,15.30
2023-03-31T17:53:46.572Z,20.20
2023-03-31T17:56:16.810Z,19.70
2023-03-31T17:58:46.942Z,18.00
2023-03-31T18:01:15.320Z,17.80
2023-03-31T18:03:45.408Z,20.40
2023-03-31T18:06:14.911Z,23.20
2023-03-31T18:08:43.299Z,20.20
2023-03-31T18:11:12.084Z,25.10
2023-03-31T18:13:40.729Z,40.80
2023-03-31T18:16:11.169Z,34.60
2023-03-31T18:18:39.877Z,41.20
2023-03-31T18:21:10.923Z,31.70
2023-03-31T18:23:40.323Z,74.20
2023-03-31T18:26:10.940Z,43.60
2023-03-31T18:28:43.227Z,50.60
2023-03-31T18:31:12.495Z,40.80
2023-03-31T18:33:41.751Z,26.80
2023-03-31T18:36:17.090Z,26.30
2023-03-31T18:38:49.482Z,30.50
2023-03-31T18:41:19.469Z,27.80
2023-03-31T18:43:48.156Z,26.90
2023-03-31T18:46:16.791Z,34.80
2023-03-31T18:48:45.634Z,33.30
2023-03-31T18:51:15.125Z,26.30
2023-03-31T18:53:44.650Z,28.30
2023-03-31T18:56:13.424Z,21.90
2023-03-31T18:58:42.104Z,22.00
2023-03-31T19:01:10.329Z,18.10
2023-03-31T19:03:39.222Z,18.20
2023-03-31T19:06:10.455Z,15.40
2023-03-31T19:08:42.800Z,16.50
2023-03-31T19:11:16.313Z,16.40
2023-03-31T19:13:47.727Z,17.00
2023-03-31T19:16:18.093Z,21.80
2023-03-31T19:18:46.871Z,21.00
2023-03-31T19:21:15.239Z,20.20
2023-03-31T19:23:43.619Z,18.20
2023-03-31T19:26:18.317Z,19.10
2023-03-31T19:28:48.224Z,17.40
2023-03-31T19:31:16.335Z,15.60
2023-03-31T19:33:44.663Z,17.70
2023-03-31T19:36:14.238Z,17.10
2023-03-31T19:38:43.535Z,15.80
2023-03-31T19:41:12.105Z,17.20
2023-03-31T19:43:42.736Z,15.90
2023-03-31T19:46:11.153Z,16.60
2023-03-31T19:48:40.527Z,13.70
2023-03-31T19:51:10.021Z,19.40
2023-03-31T19:53:39.320Z,25.70
2023-03-31T19:56:13.661Z,26.40
2023-03-31T19:58:42.665Z,21.80
2023-03-31T20:01:20.627Z,17.90
2023-03-31T20:03:53.677Z,19.80
2023-03-31T20:06:30.515Z,17.40
2023-03-31T20:09:00.974Z,16.50
2023-03-31T20:11:31.209Z,17.60
2023-03-31T20:14:01.432Z,18.40
2023-03-31T20:16:31.376Z,17.90
2023-03-31T20:19:05.260Z,18.90
2023-03-31T20:21:36.901Z,20.70
2023-03-31T20:24:06.142Z,24.70
2023-03-31T20:26:35.161Z,22.10
2023-03-31T20:29:04.324Z,22.50
2023-03-31T20:31:38.520Z,21.80
2023-03-31T20:34:12.745Z,22.10
2023-03-31T20:36:43.287Z,21.80
2023-03-31T20:39:14.149Z,20.50
2023-03-31T20:41:42.729Z,23.20
2023-03-31T20:44:15.204Z,20.40
2023-03-31T20:46:45.386Z,22.80
2023-03-31T20:49:14.242Z,22.90
2023-03-31T20:51:42.910Z,23.00
2023-03-31T20:54:12.104Z,19.80
2023-03-31T20:56:41.817Z,19.10
2023-03-31T20:59:15.115Z,18.10
2023-03-31T21:01:47.210Z,16.80
2023-03-31T21:04:17.232Z,15.00
2023-03-31T21:06:47.315Z,15.10
2023-03-31T21:09:16.613Z,15.60
2023-03-31T21:11:45.023Z,14.20
2023-03-31T21:14:15.780Z,14.50
2023-03-31T21:16:45.038Z,16.20
2023-03-31T21:19:13.504Z,15.10
2023-03-31T21:21:43.318Z,16.50
2023-03-31T21:24:12.718Z,17.00
2023-03-31T21:26:41.320Z,14.90
2023-03-31T21:29:09.583Z,13.40
2023-03-31T21:31:38.051Z,15.60
2023-03-31T21:34:06.470Z,15.30
2023-03-31T21:36:35.165Z,18.10
2023-03-31T21:39:03.519Z,15.60
2023-03-31T21:41:32.199Z,18.30
2023-03-31T21:44:02.327Z,16.70
2023-03-31T21:46:33.819Z,17.70
2023-03-31T21:49:03.083Z,17.50
2023-03-31T21:51:31.556Z,17.50
2023-03-31T21:54:00.044Z,19.20
2023-03-31T21:56:32.081Z,21.40
2023-03-31T21:59:02.524Z,17.90
2023-03-31T22:01:32.246Z,19.10
2023-03-31T22:04:00.950Z,22.30
2023-03-31T22:06:29.528Z,19.70
2023-03-31T22:08:57.680Z,19.60
2023-03-31T22:11:26.879Z,19.50
2023-03-31T22:13:55.067Z,20.80
2023-03-31T22:16:24.191Z,21.30
2023-03-31T22:18:55.297Z,19.60
2023-03-31T22:21:26.393Z,19.80
2023-03-31T22:23:59.738Z,18.30
2023-03-31T22:26:30.159Z,20.60
2023-03-31T22:28:59.368Z,17.90
2023-03-31T22:31:28.586Z,20.80
2023-03-31T22:33:57.132Z,20.50
2023-03-31T22:36:25.452Z,20.50
2023-03-31T22:38:53.588Z,19.60
2023-03-31T22:41:22.067Z,18.60
2023-03-31T22:43:51.878Z,22.40
2023-03-31T22:46:21.046Z,23.40
2023-03-31T22:48:50.608Z,25.40
2023-03-31T22:51:19.064Z,25.10
2023-03-31T22:53:51.955Z,25.50
2023-03-31T22:56:21.450Z,26.90
2023-03-31T22:58:53.318Z,26.60
2023-03-31T23:01:22.088Z,30.50
2023-03-31T23:03:50.945Z,29.10
2023-03-31T23:06:19.381Z,32.20
2023-03-31T23:08:49.130Z,29.00
2023-03-31T23:11:18.994Z,29.30
2023-03-31T23:13:47.717Z,27.20
2023-03-31T23:16:20.120Z,31.80
2023-03-31T23:18:48.951Z,29.00
2023-03-31T23:21:21.801Z,26.90
2023-03-31T23:23:53.767Z,27.60
2023-03-31T23:26:24.357Z,28.60
2023-03-31T23:28:54.463Z,28.90
2023-03-31T23:31:28.536Z,34.40
2023-03-31T23:33:58.379Z,33.00
2023-03-31T23:36:27.365Z,30.90
2023-03-31T23:38:56.773Z,33.80
2023-03-31T23:41:26.598Z,28.20
2023-03-31T23:43:56.494Z,32.90
2023-03-31T23:46:26.212Z,30.50
2023-03-31T23:48:54.686Z,33.60
2023-03-31T23:51:23.640Z,33.20
2023-03-31T23:53:52.496Z,30.60
2023-03-31T23:56:21.151Z,32.00
2023-03-31T23:58:49.330Z,32.90
